createdAt,value
2017-12-30T00:01:54.798Z,1.99
2017-12-30T00:04:27.762Z,1.88
2017-12-30T00:06:58.696Z,1.85
2017-12-30T00:09:29.690Z,1.85
2017-12-30T00:12:00.543Z,1.89
2017-12-30T00:14:30.238Z,1.83
2017-12-30T00:17:00.283Z,1.92
2017-12-30T00:19:30.880Z,1.81
2017-12-30T00:22:02.647Z,2.01
2017-12-30T00:24:33.150Z,2.05
2017-12-30T00:27:03.931Z,2.00
2017-12-30T00:29:34.491Z,2.08
2017-12-30T00:32:05.004Z,2.25
2017-12-30T00:34:35.234Z,2.13
2017-12-30T00:37:05.573Z,2.04
2017-12-30T00:39:36.403Z,2.18
2017-12-30T00:42:06.760Z,2.16
2017-12-30T00:44:36.648Z,2.13
2017-12-30T00:47:07.332Z,2.20
2017-12-30T00:49:37.529Z,2.40
2017-12-30T00:52:11.411Z,2.56
2017-12-30T00:54:42.247Z,2.25
2017-12-30T00:57:12.310Z,2.45
2017-12-30T00:59:42.768Z,2.39
2017-12-30T01:02:14.016Z,2.28
2017-12-30T01:04:44.354Z,2.25
2017-12-30T01:07:14.381Z,2.29
2017-12-30T01:09:44.734Z,2.07
2017-12-30T01:12:16.781Z,2.30
2017-12-30T01:14:46.732Z,2.25
2017-12-30T01:17:18.139Z,2.33
2017-12-30T01:19:48.939Z,2.26
2017-12-30T01:22:19.254Z,2.35
2017-12-30T01:24:49.338Z,2.24
2017-12-30T01:27:20.766Z,2.25
2017-12-30T01:29:51.289Z,2.27
2017-12-30T01:32:21.176Z,2.34
2017-12-30T01:34:52.201Z,2.29
2017-12-30T01:37:22.012Z,2.35
2017-12-30T01:39:53.242Z,2.38
2017-12-30T01:42:23.516Z,2.37
2017-12-30T01:44:54.142Z,2.47
2017-12-30T01:47:24.728Z,2.45
2017-12-30T01:49:54.462Z,2.40
2017-12-30T01:52:24.966Z,2.49
2017-12-30T01:54:55.522Z,2.44
2017-12-30T01:57:26.130Z,2.49
2017-12-30T01:59:56.319Z,2.49
2017-12-30T02:02:26.674Z,2.70
2017-12-30T02:04:58.459Z,2.62
2017-12-30T02:07:28.543Z,2.70
2017-12-30T02:09:59.728Z,2.92
2017-12-30T02:12:32.076Z,2.66
2017-12-30T02:15:02.289Z,2.74
2017-12-30T02:17:32.425Z,2.75
2017-12-30T02:20:03.016Z,2.73
2017-12-30T02:22:32.819Z,2.67
2017-12-30T02:25:06.059Z,2.64
2017-12-30T02:27:36.287Z,2.70
2017-12-30T02:30:07.555Z,2.79
2017-12-30T02:32:37.746Z,2.76
2017-12-30T02:35:07.401Z,2.72
2017-12-30T02:37:37.764Z,2.80
2017-12-30T02:40:07.888Z,2.69
2017-12-30T02:42:37.897Z,2.65
2017-12-30T02:45:08.271Z,2.71
2017-12-30T02:47:38.413Z,2.81
2017-12-30T02:50:08.294Z,2.74
2017-12-30T02:52:38.681Z,2.72
2017-12-30T02:55:08.557Z,2.53
2017-12-30T02:57:41.029Z,2.53
2017-12-30T03:00:12.883Z,2.57
2017-12-30T03:02:44.191Z,2.57
2017-12-30T03:05:14.247Z,2.58
2017-12-30T03:07:44.232Z,2.50
2017-12-30T03:10:14.386Z,2.53
2017-12-30T03:12:45.071Z,2.60
2017-12-30T03:15:14.952Z,2.56
2017-12-30T03:17:44.647Z,2.65
2017-12-30T03:20:14.669Z,2.64
2017-12-30T03:22:44.327Z,2.70
2017-12-30T03:25:13.970Z,2.66
2017-12-30T03:27:43.994Z,2.84
2017-12-30T03:30:14.277Z,2.75
2017-12-30T03:32:44.115Z,2.65
2017-12-30T03:35:14.468Z,2.73
2017-12-30T03:37:44.427Z,2.62
2017-12-30T03:40:14.258Z,2.87
2017-12-30T03:42:44.358Z,2.72
2017-12-30T03:45:14.677Z,2.59
2017-12-30T03:47:44.478Z,2.73
2017-12-30T03:50:14.665Z,2.70
2017-12-30T03:52:44.352Z,2.74
2017-12-30T03:55:14.103Z,2.57
2017-12-30T03:57:44.191Z,2.54
2017-12-30T04:00:14.031Z,2.56
2017-12-30T04:02:44.043Z,2.48
2017-12-30T04:05:14.237Z,2.49
2017-12-30T04:07:44.171Z,2.44
2017-12-30T04:10:16.834Z,2.45
2017-12-30T04:12:46.975Z,2.43
2017-12-30T04:15:16.723Z,2.43
2017-12-30T04:17:46.369Z,2.37
2017-12-30T04:20:16.745Z,2.40
2017-12-30T04:22:46.462Z,2.37
2017-12-30T04:25:16.358Z,2.35
2017-12-30T04:27:45.955Z,2.34
2017-12-30T04:30:15.624Z,2.32
2017-12-30T04:32:45.495Z,2.32
2017-12-30T04:35:15.462Z,2.30
2017-12-30T04:37:45.261Z,2.31
2017-12-30T04:40:14.806Z,2.30
2017-12-30T04:42:44.485Z,2.31
2017-12-30T04:45:14.380Z,2.34
2017-12-30T04:47:44.355Z,2.32
2017-12-30T04:50:14.016Z,2.34
2017-12-30T04:52:44.388Z,2.36
2017-12-30T04:55:14.217Z,2.31
2017-12-30T04:57:43.845Z,2.37
2017-12-30T05:00:14.060Z,2.33
2017-12-30T05:02:43.876Z,2.34
2017-12-30T05:05:13.585Z,2.32
2017-12-30T05:07:43.241Z,2.42
2017-12-30T05:10:13.096Z,2.38
2017-12-30T05:12:42.667Z,2.42
2017-12-30T05:15:12.845Z,2.45
2017-12-30T05:17:42.560Z,2.44
2017-12-30T05:20:12.725Z,2.47
2017-12-30T05:22:42.916Z,2.46
2017-12-30T05:25:12.622Z,2.48
2017-12-30T05:27:42.244Z,2.47
2017-12-30T05:30:12.372Z,2.47
2017-12-30T05:32:41.981Z,2.53
2017-12-30T05:35:11.928Z,2.48
2017-12-30T05:37:41.797Z,2.41
2017-12-30T05:40:11.392Z,2.41
2017-12-30T05:42:41.119Z,2.45
2017-12-30T05:45:10.834Z,2.37
2017-12-30T05:47:40.894Z,2.42
2017-12-30T05:50:10.628Z,2.48
2017-12-30T05:52:40.297Z,2.49
2017-12-30T05:55:10.582Z,2.51
2017-12-30T05:57:40.286Z,2.50
2017-12-30T06:00:10.731Z,2.54
2017-12-30T06:02:40.919Z,2.64
2017-12-30T06:05:10.773Z,2.56
2017-12-30T06:07:42.431Z,2.62
2017-12-30T06:10:14.219Z,2.63
2017-12-30T06:12:45.603Z,2.62
2017-12-30T06:15:18.308Z,2.76
2017-12-30T06:17:48.144Z,2.73
2017-12-30T06:20:17.768Z,2.64
2017-12-30T06:22:47.688Z,2.71
2017-12-30T06:25:17.692Z,2.73
2017-12-30T06:27:47.450Z,2.78
2017-12-30T06:30:19.580Z,2.73
2017-12-30T06:32:49.225Z,2.75
2017-12-30T06:35:19.069Z,2.75
2017-12-30T06:37:51.346Z,2.75
2017-12-30T06:40:21.149Z,2.76
2017-12-30T06:42:50.942Z,2.81
2017-12-30T06:45:20.645Z,2.78
2017-12-30T06:47:52.102Z,2.81
2017-12-30T06:50:21.797Z,2.84
2017-12-30T06:52:53.478Z,2.86
2017-12-30T06:55:25.412Z,3.03
2017-12-30T06:57:55.478Z,2.93
2017-12-30T07:00:26.392Z,2.83
2017-12-30T07:02:57.012Z,2.96
2017-12-30T07:05:26.696Z,2.89
2017-12-30T07:07:58.513Z,2.82
2017-12-30T07:10:28.589Z,2.92
2017-12-30T07:13:00.927Z,3.07
2017-12-30T07:15:32.837Z,2.93
2017-12-30T07:18:03.194Z,3.12
2017-12-30T07:20:34.922Z,3.15
2017-12-30T07:23:08.355Z,3.04
2017-12-30T07:25:40.688Z,3.21
2017-12-30T07:28:15.330Z,3.27
2017-12-30T07:30:46.262Z,3.17
2017-12-30T07:33:16.519Z,3.19
2017-12-30T07:35:49.453Z,3.20
2017-12-30T07:38:20.402Z,3.28
2017-12-30T07:40:50.081Z,3.29
2017-12-30T07:43:21.312Z,3.26
2017-12-30T07:45:52.121Z,3.37
2017-12-30T07:48:23.192Z,3.33
2017-12-30T07:50:54.414Z,3.45
2017-12-30T07:53:25.010Z,3.40
2017-12-30T07:55:57.493Z,3.45
2017-12-30T07:58:27.530Z,3.49
2017-12-30T08:00:58.122Z,3.61
2017-12-30T08:03:27.998Z,3.52
2017-12-30T08:05:59.548Z,3.56
2017-12-30T08:08:32.101Z,3.63
2017-12-30T08:11:03.746Z,3.63
2017-12-30T08:13:33.577Z,3.69
2017-12-30T08:16:04.021Z,3.69
2017-12-30T08:18:37.925Z,3.68
2017-12-30T08:21:10.006Z,3.72
2017-12-30T08:23:42.242Z,3.74
2017-12-30T08:26:13.140Z,3.74
2017-12-30T08:28:43.604Z,3.83
2017-12-30T08:31:18.997Z,3.89
2017-12-30T08:33:50.652Z,3.88
2017-12-30T08:36:20.448Z,3.97
2017-12-30T08:38:50.846Z,3.89
2017-12-30T08:41:21.601Z,3.90
2017-12-30T08:43:54.460Z,3.90
2017-12-30T08:46:24.193Z,4.04
2017-12-30T08:48:54.659Z,4.00
2017-12-30T08:51:28.797Z,4.00
2017-12-30T08:54:03.974Z,3.98
2017-12-30T08:56:35.088Z,4.07
2017-12-30T08:59:05.101Z,4.05
2017-12-30T09:01:37.685Z,4.10
2017-12-30T09:04:08.493Z,4.09
2017-12-30T09:06:40.440Z,4.34
2017-12-30T09:09:10.247Z,4.25
2017-12-30T09:11:40.080Z,4.29
2017-12-30T09:14:11.756Z,4.29
2017-12-30T09:16:42.985Z,4.29
2017-12-30T09:19:12.998Z,4.29
2017-12-30T09:21:42.777Z,4.39
2017-12-30T09:24:13.381Z,4.37
2017-12-30T09:26:43.222Z,4.44
2017-12-30T09:29:13.446Z,4.44
2017-12-30T09:31:43.259Z,4.51
2017-12-30T09:34:13.423Z,4.42
2017-12-30T09:36:43.220Z,4.55
2017-12-30T09:39:13.044Z,4.55
2017-12-30T09:41:43.061Z,4.50
2017-12-30T09:44:14.384Z,4.63
2017-12-30T09:46:44.091Z,4.56
2017-12-30T09:49:13.706Z,4.61
2017-12-30T09:51:43.704Z,4.52
2017-12-30T09:54:13.600Z,4.51
2017-12-30T09:56:43.468Z,4.55
2017-12-30T09:59:21.251Z,4.50
2017-12-30T10:01:51.247Z,4.46
2017-12-30T10:04:26.501Z,4.41
2017-12-30T10:07:03.795Z,4.44
2017-12-30T10:12:18.089Z,4.50
2017-12-30T10:14:48.677Z,4.59
2017-12-30T10:17:26.531Z,4.55
2017-12-30T10:19:57.063Z,4.40
2017-12-30T10:22:35.328Z,4.37
2017-12-30T10:25:08.059Z,4.36
2017-12-30T10:27:43.690Z,4.36
2017-12-30T10:30:19.345Z,4.59
2017-12-30T10:32:49.740Z,4.37
2017-12-30T10:38:13.041Z,4.48
2017-12-30T10:40:44.500Z,4.53
2017-12-30T10:43:22.783Z,4.46
2017-12-30T10:46:00.324Z,4.47
2017-12-30T10:48:46.312Z,4.44
2017-12-30T10:51:22.006Z,4.41
2017-12-30T10:53:58.623Z,4.42
2017-12-30T10:56:37.196Z,4.33
2017-12-30T10:59:17.203Z,4.36
2017-12-30T11:02:21.706Z,4.45
2017-12-30T11:04:57.506Z,4.44
2017-12-30T11:07:42.110Z,4.38
2017-12-30T11:10:26.305Z,4.48
2017-12-30T11:12:58.257Z,4.50
2017-12-30T11:15:53.531Z,4.59
2017-12-30T11:24:21.011Z,4.51
2017-12-30T11:26:51.421Z,4.41
2017-12-30T11:29:25.566Z,4.46
2017-12-30T11:31:55.691Z,4.45
2017-12-30T11:34:26.003Z,4.53
2017-12-30T11:36:56.672Z,4.57
2017-12-30T11:39:28.279Z,4.56
2017-12-30T11:42:00.260Z,4.57
2017-12-30T11:44:31.313Z,4.67
2017-12-30T11:47:03.415Z,4.71
2017-12-30T11:49:38.662Z,4.76
2017-12-30T11:52:08.522Z,4.80
2017-12-30T11:54:44.695Z,4.81
2017-12-30T11:57:15.346Z,4.83
2017-12-30T11:59:45.725Z,4.76
2017-12-30T12:02:16.300Z,4.79
2017-12-30T12:04:47.709Z,4.87
2017-12-30T12:07:18.463Z,4.86
2017-12-30T12:09:50.173Z,4.85
2017-12-30T12:12:20.604Z,4.86
2017-12-30T12:14:51.179Z,4.92
2017-12-30T12:17:20.826Z,4.95
2017-12-30T12:19:52.260Z,5.00
2017-12-30T12:22:22.319Z,4.95
2017-12-30T12:24:52.560Z,4.99
2017-12-30T12:27:23.930Z,4.97
2017-12-30T12:29:56.110Z,4.96
2017-12-30T12:32:25.795Z,5.06
2017-12-30T12:34:55.502Z,5.10
2017-12-30T12:37:25.860Z,5.20
2017-12-30T12:39:59.554Z,5.18
2017-12-30T12:42:29.906Z,5.22
2017-12-30T12:45:00.191Z,5.36
2017-12-30T12:47:30.303Z,5.39
2017-12-30T12:50:01.753Z,5.40
2017-12-30T12:52:32.078Z,5.53
2017-12-30T12:55:04.235Z,5.64
2017-12-30T12:57:35.986Z,5.64
2017-12-30T13:00:06.711Z,5.69
2017-12-30T13:02:39.123Z,5.71
2017-12-30T13:05:10.466Z,5.73
2017-12-30T13:07:40.188Z,5.74
2017-12-30T13:10:10.981Z,5.79
2017-12-30T13:12:41.131Z,5.97
2017-12-30T13:15:12.867Z,5.99
2017-12-30T13:17:44.033Z,5.92
2017-12-30T13:20:14.345Z,6.04
2017-12-30T13:22:44.840Z,6.02
2017-12-30T13:25:17.822Z,6.06
2017-12-30T13:27:49.230Z,6.12
2017-12-30T13:30:20.427Z,6.16
2017-12-30T13:32:52.124Z,6.14
2017-12-30T13:35:22.516Z,6.18
2017-12-30T13:37:52.352Z,6.18
2017-12-30T13:40:24.260Z,6.22
2017-12-30T13:42:54.972Z,6.18
2017-12-30T13:45:24.960Z,6.17
2017-12-30T13:47:55.280Z,6.17
2017-12-30T13:50:27.872Z,6.17
2017-12-30T13:52:58.059Z,6.24
2017-12-30T13:55:27.607Z,6.24
2017-12-30T13:57:57.104Z,6.26
2017-12-30T14:00:28.796Z,6.31
2017-12-30T14:02:58.765Z,6.31
2017-12-30T14:05:30.684Z,6.37
2017-12-30T14:08:00.372Z,6.34
2017-12-30T14:10:31.026Z,6.35
2017-12-30T14:13:00.480Z,6.40
2017-12-30T14:15:30.977Z,6.50
2017-12-30T14:18:03.468Z,6.45
2017-12-30T14:20:33.345Z,6.49
2017-12-30T14:23:05.854Z,6.50
2017-12-30T14:25:35.957Z,6.50
2017-12-30T14:28:07.724Z,6.55
2017-12-30T14:30:38.256Z,6.56
2017-12-30T14:33:08.875Z,6.59
2017-12-30T14:35:43.152Z,6.64
2017-12-30T14:38:13.527Z,6.62
2017-12-30T14:40:45.423Z,6.67
2017-12-30T14:43:18.134Z,6.71
2017-12-30T14:45:50.269Z,6.71
2017-12-30T14:48:23.708Z,6.77
2017-12-30T14:50:54.754Z,6.80
2017-12-30T14:53:25.986Z,6.85
2017-12-30T14:55:56.208Z,6.96
2017-12-30T14:58:27.393Z,6.95
2017-12-30T15:00:58.993Z,7.00
2017-12-30T15:03:30.595Z,7.08
2017-12-30T15:06:02.667Z,7.09
2017-12-30T15:08:35.032Z,7.11
2017-12-30T15:11:14.155Z,7.27
2017-12-30T15:14:06.484Z,7.31
2017-12-30T15:17:24.948Z,7.23
2017-12-30T15:20:17.634Z,7.23
2017-12-30T15:23:07.419Z,7.22
2017-12-30T15:28:27.337Z,7.21
2017-12-30T15:30:57.088Z,7.21
2017-12-30T15:33:51.440Z,7.35
2017-12-30T15:36:26.613Z,7.32
2017-12-30T15:39:05.313Z,7.29
2017-12-30T15:41:36.737Z,7.37
2017-12-30T15:44:11.434Z,7.42
2017-12-30T15:46:57.028Z,7.39
2017-12-30T15:49:51.397Z,7.55
2017-12-30T15:52:43.418Z,7.49
2017-12-30T15:55:33.688Z,7.64
2017-12-30T15:58:05.078Z,7.62
2017-12-30T16:01:00.308Z,7.76
2017-12-30T16:03:30.319Z,7.71
2017-12-30T16:06:00.509Z,7.74
2017-12-30T16:08:31.142Z,7.65
2017-12-30T16:11:07.453Z,7.81
2017-12-30T16:13:38.356Z,7.77
2017-12-30T16:16:08.484Z,7.86
2017-12-30T16:18:38.639Z,7.81
2017-12-30T16:21:10.550Z,7.83
2017-12-30T16:23:44.687Z,7.97
2017-12-30T16:26:16.865Z,8.00
2017-12-30T16:28:47.196Z,8.02
2017-12-30T16:31:17.711Z,7.88
2017-12-30T16:33:49.964Z,7.99
2017-12-30T16:36:20.786Z,7.94
2017-12-30T16:38:51.888Z,7.94
2017-12-30T16:41:21.502Z,8.06
2017-12-30T16:43:52.511Z,8.01
2017-12-30T16:46:24.016Z,8.11
2017-12-30T16:48:57.058Z,8.05
2017-12-30T16:51:28.525Z,8.17
2017-12-30T16:54:00.616Z,8.30
2017-12-30T16:56:34.641Z,8.32
2017-12-30T16:59:07.148Z,8.36
2017-12-30T17:01:48.319Z,8.33
2017-12-30T17:04:22.734Z,8.42
2017-12-30T17:06:53.147Z,8.36
2017-12-30T17:09:30.922Z,8.46
2017-12-30T17:12:12.035Z,8.49
2017-12-30T17:14:48.154Z,8.54
2017-12-30T17:17:28.170Z,8.63
2017-12-30T17:20:07.567Z,8.73
2017-12-30T17:22:43.735Z,8.78
2017-12-30T17:25:15.551Z,8.74
2017-12-30T17:27:52.791Z,8.80
2017-12-30T17:30:23.233Z,8.82
2017-12-30T17:32:54.774Z,8.77
2017-12-30T17:35:27.197Z,8.83
2017-12-30T17:37:58.284Z,8.83
2017-12-30T17:40:28.123Z,8.84
2017-12-30T17:42:58.031Z,8.84
2017-12-30T17:45:28.769Z,8.85
2017-12-30T17:47:59.054Z,8.86
2017-12-30T17:50:33.180Z,8.88
2017-12-30T17:53:03.112Z,8.93
2017-12-30T17:55:35.103Z,8.88
2017-12-30T17:58:07.308Z,9.09
2017-12-30T18:00:40.879Z,8.93
2017-12-30T18:03:13.374Z,9.15
2017-12-30T18:05:45.889Z,9.18
2017-12-30T18:08:18.745Z,9.21
2017-12-30T18:10:49.675Z,9.20
2017-12-30T18:13:21.518Z,9.31
2017-12-30T18:15:53.656Z,9.28
2017-12-30T18:18:24.966Z,9.33
2017-12-30T18:20:56.493Z,9.42
2017-12-30T18:23:28.588Z,9.34
2017-12-30T18:25:59.845Z,9.41
2017-12-30T18:28:31.318Z,9.34
2017-12-30T18:31:05.029Z,9.42
2017-12-30T18:33:37.171Z,9.38
2017-12-30T18:36:07.748Z,9.53
2017-12-30T18:38:44.238Z,9.47
2017-12-30T18:41:14.668Z,9.48
2017-12-30T18:43:46.662Z,9.48
2017-12-30T18:46:20.778Z,9.39
2017-12-30T18:48:53.424Z,9.53
2017-12-30T18:51:25.497Z,9.52
2017-12-30T18:53:57.299Z,9.66
2017-12-30T18:56:31.596Z,9.67
2017-12-30T18:59:04.094Z,9.63
2017-12-30T19:01:37.265Z,9.71
2017-12-30T19:04:07.770Z,9.77
2017-12-30T19:06:37.881Z,9.77
2017-12-30T19:09:11.398Z,9.93
2017-12-30T19:11:43.346Z,9.83
2017-12-30T19:14:14.088Z,9.92
2017-12-30T19:16:45.107Z,9.92
2017-12-30T19:19:16.303Z,10.07
2017-12-30T19:21:48.228Z,9.95
2017-12-30T19:24:19.237Z,9.89
2017-12-30T19:26:50.165Z,9.89
2017-12-30T19:29:22.676Z,9.89
2017-12-30T19:31:54.376Z,9.94
2017-12-30T19:34:26.171Z,9.85
2017-12-30T19:36:57.506Z,9.83
2017-12-30T19:39:30.998Z,9.87
2017-12-30T19:42:02.133Z,9.85
2017-12-30T19:44:31.837Z,9.87
2017-12-30T19:47:04.184Z,9.84
2017-12-30T19:49:36.145Z,9.77
2017-12-30T19:52:08.903Z,9.82
2017-12-30T19:54:40.172Z,9.76
2017-12-30T19:57:10.677Z,9.74
2017-12-30T19:59:42.675Z,9.80
2017-12-30T20:02:14.606Z,9.75
2017-12-30T20:04:45.792Z,9.75
2017-12-30T20:07:16.656Z,9.75
2017-12-30T20:09:47.510Z,9.73
2017-12-30T20:12:18.840Z,9.77
2017-12-30T20:14:50.159Z,9.70
2017-12-30T20:17:20.778Z,9.78
2017-12-30T20:19:52.084Z,9.81
2017-12-30T20:22:26.665Z,9.83
2017-12-30T20:24:58.585Z,9.75
2017-12-30T20:27:32.369Z,9.71
2017-12-30T20:30:05.593Z,9.75
2017-12-30T20:32:38.116Z,9.72
2017-12-30T20:35:12.978Z,9.72
2017-12-30T20:37:44.884Z,9.88
2017-12-30T20:40:16.764Z,9.83
2017-12-30T20:42:50.950Z,9.79
2017-12-30T20:45:26.618Z,9.76
2017-12-30T20:47:57.335Z,9.79
2017-12-30T20:50:27.007Z,9.82
2017-12-30T20:52:56.941Z,9.78
2017-12-30T20:55:28.648Z,9.79
2017-12-30T20:57:58.716Z,9.71
2017-12-30T21:00:30.376Z,9.88
2017-12-30T21:03:01.891Z,9.79
2017-12-30T21:05:33.713Z,9.79
2017-12-30T21:08:07.860Z,9.75
2017-12-30T21:10:43.975Z,9.82
2017-12-30T21:13:22.669Z,9.82
2017-12-30T21:15:54.765Z,9.97
2017-12-30T21:18:28.719Z,10.02
2017-12-30T21:21:01.664Z,9.95
2017-12-30T21:23:35.195Z,9.94
2017-12-30T21:26:06.936Z,10.03
2017-12-30T21:28:38.051Z,10.09
2017-12-30T21:31:08.156Z,10.06
2017-12-30T21:33:43.308Z,10.09
2017-12-30T21:36:15.779Z,10.10
2017-12-30T21:38:49.642Z,10.24
2017-12-30T21:41:20.807Z,10.21
2017-12-30T21:43:52.611Z,10.12
2017-12-30T21:48:56.199Z,10.17
2017-12-30T21:51:28.022Z,10.26
2017-12-30T21:53:59.333Z,10.20
2017-12-30T21:56:31.954Z,10.26
2017-12-30T21:59:03.189Z,10.42
2017-12-30T22:01:35.099Z,10.48
2017-12-30T22:04:05.373Z,10.46
2017-12-30T22:06:36.617Z,10.52
2017-12-30T22:09:11.915Z,10.49
2017-12-30T22:11:42.731Z,10.49
2017-12-30T22:14:13.595Z,10.52
2017-12-30T22:16:45.062Z,10.49
2017-12-30T22:19:16.353Z,10.59
2017-12-30T22:21:47.098Z,10.56
2017-12-30T22:24:18.372Z,10.49
2017-12-30T22:26:51.238Z,10.64
2017-12-30T22:29:22.488Z,10.66
2017-12-30T22:31:52.695Z,10.63
2017-12-30T22:34:24.008Z,10.75
2017-12-30T22:36:55.911Z,10.71
2017-12-30T22:39:27.892Z,10.69
2017-12-30T22:41:57.978Z,10.75
2017-12-30T22:44:28.076Z,10.65
2017-12-30T22:46:58.581Z,10.85
2017-12-30T22:49:29.922Z,10.84
2017-12-30T22:52:00.798Z,10.79
2017-12-30T22:54:32.237Z,10.94
2017-12-30T22:57:04.601Z,10.83
2017-12-30T22:59:35.230Z,10.82
2017-12-30T23:02:07.259Z,10.90
2017-12-30T23:04:39.262Z,10.96
2017-12-30T23:07:10.880Z,10.91
2017-12-30T23:09:46.047Z,10.90
2017-12-30T23:12:21.176Z,10.94
2017-12-30T23:14:53.635Z,10.91
2017-12-30T23:17:24.492Z,10.86
2017-12-30T23:19:55.518Z,10.86
2017-12-30T23:22:32.252Z,10.87
2017-12-30T23:25:03.465Z,10.90
2017-12-30T23:27:33.955Z,11.04
2017-12-30T23:30:08.460Z,10.96
2017-12-30T23:32:39.991Z,11.00
2017-12-30T23:35:11.135Z,11.11
2017-12-30T23:37:42.844Z,10.94
2017-12-30T23:40:15.887Z,11.12
2017-12-30T23:42:47.458Z,11.11
2017-12-30T23:45:18.419Z,11.00
2017-12-30T23:47:49.664Z,11.09
2017-12-30T23:50:21.150Z,11.12
2017-12-30T23:52:52.482Z,11.19
2017-12-30T23:55:24.467Z,11.13
2017-12-30T23:57:55.982Z,11.08
